sensor_id;sensor_type;location;lat;lon;timestamp;pressure;altitude;pressure_sealevel;temperature;humidity
23176;BME280;19910;42.652;23.332;2023-02-13T00:01:14;96394.91;;;-0.68;96.31
23176;BME280;19910;42.652;23.332;2023-02-13T00:03:40;96393.28;;;-0.69;96.20
23176;BME280;19910;42.652;23.332;2023-02-13T00:06:08;96394.16;;;-0.82;95.43
23176;BME280;19910;42.652;23.332;2023-02-13T00:08:36;96396.84;;;-0.89;95.66
23176;BME280;19910;42.652;23.332;2023-02-13T00:11:03;96385.94;;;-0.81;95.44
23176;BME280;19910;42.652;23.332;2023-02-13T00:13:32;96397.50;;;-1.00;96.18
23176;BME280;19910;42.652;23.332;2023-02-13T00:16:01;96392.41;;;-1.08;96.60
23176;BME280;19910;42.652;23.332;2023-02-13T00:18:31;96399.56;;;-1.02;97.39
23176;BME280;19910;42.652;23.332;2023-02-13T00:20:59;96390.56;;;-1.08;97.33
23176;BME280;19910;42.652;23.332;2023-02-13T00:23:28;96402.03;;;-1.07;97.36
23176;BME280;19910;42.652;23.332;2023-02-13T00:25:57;96392.66;;;-1.16;97.48
23176;BME280;19910;42.652;23.332;2023-02-13T00:28:24;96400.03;;;-1.12;97.91
23176;BME280;19910;42.652;23.332;2023-02-13T00:30:51;96403.22;;;-0.96;99.20
23176;BME280;19910;42.652;23.332;2023-02-13T00:33:18;96411.72;;;-0.75;98.88
23176;BME280;19910;42.652;23.332;2023-02-13T00:35:44;96415.41;;;-0.76;98.92
23176;BME280;19910;42.652;23.332;2023-02-13T00:38:11;96400.78;;;-0.60;98.59
23176;BME280;19910;42.652;23.332;2023-02-13T00:40:38;96406.28;;;-0.55;97.73
23176;BME280;19910;42.652;23.332;2023-02-13T00:43:06;96405.03;;;-0.52;97.59
23176;BME280;19910;42.652;23.332;2023-02-13T00:45:33;96405.28;;;-0.60;96.27
23176;BME280;19910;42.652;23.332;2023-02-13T00:47:59;96410.78;;;-0.55;97.01
23176;BME280;19910;42.652;23.332;2023-02-13T00:50:26;96408.38;;;-0.63;96.82
23176;BME280;19910;42.652;23.332;2023-02-13T00:52:53;96411.00;;;-0.57;96.42
23176;BME280;19910;42.652;23.332;2023-02-13T00:55:20;96413.69;;;-0.63;96.33
23176;BME280;19910;42.652;23.332;2023-02-13T00:57:46;96423.31;;;-0.62;96.48
23176;BME280;19910;42.652;23.332;2023-02-13T01:00:16;96413.69;;;-0.63;96.62
23176;BME280;19910;42.652;23.332;2023-02-13T01:02:42;96427.25;;;-0.72;96.51
23176;BME280;19910;42.652;23.332;2023-02-13T01:05:09;96423.38;;;-0.76;96.32
23176;BME280;19910;42.652;23.332;2023-02-13T01:07:36;96422.59;;;-0.83;96.82
23176;BME280;19910;42.652;23.332;2023-02-13T01:10:03;96424.22;;;-0.82;96.99
23176;BME280;19910;42.652;23.332;2023-02-13T01:12:30;96417.28;;;-0.83;97.37
23176;BME280;19910;42.652;23.332;2023-02-13T01:14:57;96415.81;;;-0.79;97.44
23176;BME280;19910;42.652;23.332;2023-02-13T01:17:25;96413.28;;;-0.60;97.38
23176;BME280;19910;42.652;23.332;2023-02-13T01:19:52;96415.31;;;-0.62;96.08
23176;BME280;19910;42.652;23.332;2023-02-13T01:22:18;96406.34;;;-0.68;95.29
23176;BME280;19910;42.652;23.332;2023-02-13T01:24:45;96421.50;;;-0.68;95.62
23176;BME280;19910;42.652;23.332;2023-02-13T01:27:12;96424.97;;;-0.68;94.76
23176;BME280;19910;42.652;23.332;2023-02-13T01:29:39;96413.59;;;-0.50;94.19
23176;BME280;19910;42.652;23.332;2023-02-13T01:32:05;96420.22;;;-0.59;93.85
23176;BME280;19910;42.652;23.332;2023-02-13T01:34:33;96429.44;;;-0.55;94.65
23176;BME280;19910;42.652;23.332;2023-02-13T01:37:00;96425.97;;;-0.62;95.53
23176;BME280;19910;42.652;23.332;2023-02-13T01:39:27;96424.94;;;-0.61;96.69
23176;BME280;19910;42.652;23.332;2023-02-13T01:41:54;96427.94;;;-0.51;97.01
23176;BME280;19910;42.652;23.332;2023-02-13T01:44:54;96423.22;;;-0.49;97.28
23176;BME280;19910;42.652;23.332;2023-02-13T01:47:27;96435.25;;;-0.40;97.24
23176;BME280;19910;42.652;23.332;2023-02-13T01:50:02;96421.69;;;-0.32;97.36
23176;BME280;19910;42.652;23.332;2023-02-13T01:52:32;96426.94;;;-0.19;96.82
23176;BME280;19910;42.652;23.332;2023-02-13T01:55:01;96439.00;;;-0.16;95.98
23176;BME280;19910;42.652;23.332;2023-02-13T01:57:30;96430.53;;;-0.07;95.01
23176;BME280;19910;42.652;23.332;2023-02-13T02:00:00;96434.13;;;-0.26;94.76
23176;BME280;19910;42.652;23.332;2023-02-13T02:02:30;96433.56;;;-0.28;94.96
23176;BME280;19910;42.652;23.332;2023-02-13T02:05:02;96436.28;;;-0.10;95.39
23176;BME280;19910;42.652;23.332;2023-02-13T02:07:30;96430.84;;;0.04;95.15
23176;BME280;19910;42.652;23.332;2023-02-13T02:10:01;96423.47;;;0.06;94.43
23176;BME280;19910;42.652;23.332;2023-02-13T02:12:32;96423.47;;;0.06;94.64
23176;BME280;19910;42.652;23.332;2023-02-13T02:15:03;96426.63;;;0.21;94.67
23176;BME280;19910;42.652;23.332;2023-02-13T02:17:30;96408.09;;;0.08;94.70
23176;BME280;19910;42.652;23.332;2023-02-13T02:20:06;96421.84;;;0.05;94.51
23176;BME280;19910;42.652;23.332;2023-02-13T02:23:16;96415.91;;;0.03;93.98
23176;BME280;19910;42.652;23.332;2023-02-13T02:26:17;96413.19;;;0.09;94.03
23176;BME280;19910;42.652;23.332;2023-02-13T02:29:13;96421.28;;;0.21;93.79
23176;BME280;19910;42.652;23.332;2023-02-13T02:32:10;96416.88;;;0.33;93.08
23176;BME280;19910;42.652;23.332;2023-02-13T02:34:49;96418.91;;;0.13;93.67
23176;BME280;19910;42.652;23.332;2023-02-13T02:37:31;96412.78;;;0.12;93.81
23176;BME280;19910;42.652;23.332;2023-02-13T02:40:10;96419.34;;;0.10;94.14
23176;BME280;19910;42.652;23.332;2023-02-13T02:42:51;96425.84;;;0.14;94.12
23176;BME280;19910;42.652;23.332;2023-02-13T02:45:27;96435.22;;;0.23;94.71
23176;BME280;19910;42.652;23.332;2023-02-13T02:47:59;96434.31;;;0.29;94.43
23176;BME280;19910;42.652;23.332;2023-02-13T02:50:51;96438.75;;;0.17;94.63
23176;BME280;19910;42.652;23.332;2023-02-13T02:53:28;96444.84;;;-0.01;95.19
23176;BME280;19910;42.652;23.332;2023-02-13T02:56:02;96450.53;;;0.03;95.39
23176;BME280;19910;42.652;23.332;2023-02-13T02:58:36;96441.50;;;0.04;95.21
23176;BME280;19910;42.652;23.332;2023-02-13T03:01:24;96457.25;;;0.12;95.67
23176;BME280;19910;42.652;23.332;2023-02-13T03:04:17;96458.59;;;0.21;95.79
23176;BME280;19910;42.652;23.332;2023-02-13T03:07:05;96449.78;;;0.45;95.13
23176;BME280;19910;42.652;23.332;2023-02-13T03:09:36;96446.25;;;0.51;93.63
23176;BME280;19910;42.652;23.332;2023-02-13T03:12:26;96443.28;;;0.59;93.70
23176;BME280;19910;42.652;23.332;2023-02-13T03:15:13;96439.88;;;0.52;92.99
23176;BME280;19910;42.652;23.332;2023-02-13T03:17:39;96440.75;;;0.46;93.29
23176;BME280;19910;42.652;23.332;2023-02-13T03:20:35;96447.41;;;0.37;93.30
23176;BME280;19910;42.652;23.332;2023-02-13T03:23:33;96455.19;;;0.39;93.04
23176;BME280;19910;42.652;23.332;2023-02-13T03:26:14;96440.47;;;0.54;92.74
23176;BME280;19910;42.652;23.332;2023-02-13T03:28:51;96439.28;;;0.68;91.88
23176;BME280;19910;42.652;23.332;2023-02-13T03:31:53;96447.16;;;0.63;91.29
23176;BME280;19910;42.652;23.332;2023-02-13T03:34:29;96445.81;;;0.73;91.05
23176;BME280;19910;42.652;23.332;2023-02-13T03:37:26;96455.00;;;0.77;91.02
23176;BME280;19910;42.652;23.332;2023-02-13T03:40:15;96452.78;;;0.74;90.31
23176;BME280;19910;42.652;23.332;2023-02-13T03:42:47;96450.56;;;0.89;90.59
23176;BME280;19910;42.652;23.332;2023-02-13T03:45:19;96453.97;;;0.78;89.49
23176;BME280;19910;42.652;23.332;2023-02-13T03:48:07;96448.91;;;0.69;89.96
23176;BME280;19910;42.652;23.332;2023-02-13T03:50:55;96448.63;;;0.59;90.70
23176;BME280;19910;42.652;23.332;2023-02-13T03:53:24;96439.88;;;0.52;91.01
23176;BME280;19910;42.652;23.332;2023-02-13T03:55:54;96443.91;;;0.80;91.39
23176;BME280;19910;42.652;23.332;2023-02-13T03:58:42;96443.97;;;0.91;90.17
23176;BME280;19910;42.652;23.332;2023-02-13T04:01:30;96443.06;;;0.97;88.95
23176;BME280;19910;42.652;23.332;2023-02-13T04:04:05;96436.63;;;0.87;88.83
23176;BME280;19910;42.652;23.332;2023-02-13T04:06:37;96437.22;;;0.52;90.48
23176;BME280;19910;42.652;23.332;2023-02-13T04:09:08;96432.91;;;0.51;90.37
23176;BME280;19910;42.652;23.332;2023-02-13T04:11:39;96450.19;;;0.42;90.89
23176;BME280;19910;42.652;23.332;2023-02-13T04:14:12;96448.31;;;0.49;91.17
23176;BME280;19910;42.652;23.332;2023-02-13T04:16:43;96452.22;;;0.47;91.90
23176;BME280;19910;42.652;23.332;2023-02-13T04:19:12;96450.53;;;0.52;91.71
23176;BME280;19910;42.652;23.332;2023-02-13T04:21:39;96446.25;;;0.69;90.57
23176;BME280;19910;42.652;23.332;2023-02-13T04:24:08;96451.59;;;0.69;90.54
23176;BME280;19910;42.652;23.332;2023-02-13T04:26:37;96446.66;;;0.48;90.21
23176;BME280;19910;42.652;23.332;2023-02-13T04:29:05;96458.66;;;0.39;90.98
23176;BME280;19910;42.652;23.332;2023-02-13T04:31:32;96451.81;;;0.25;91.12
23176;BME280;19910;42.652;23.332;2023-02-13T04:33:59;96458.09;;;0.30;91.97
23176;BME280;19910;42.652;23.332;2023-02-13T04:36:26;96450.53;;;0.52;91.54
23176;BME280;19910;42.652;23.332;2023-02-13T04:38:53;96437.44;;;0.51;90.76
23176;BME280;19910;42.652;23.332;2023-02-13T04:41:23;96443.72;;;0.56;90.40
23176;BME280;19910;42.652;23.332;2023-02-13T04:43:50;96446.25;;;0.69;90.73
23176;BME280;19910;42.652;23.332;2023-02-13T04:46:17;96448.69;;;0.71;90.08
23176;BME280;19910;42.652;23.332;2023-02-13T04:48:44;96440.19;;;0.62;89.70
23176;BME280;19910;42.652;23.332;2023-02-13T04:51:10;96438.25;;;0.69;89.14
23176;BME280;19910;42.652;23.332;2023-02-13T04:53:39;96441.38;;;0.66;89.25
23176;BME280;19910;42.652;23.332;2023-02-13T04:56:06;96447.06;;;0.70;89.24
23176;BME280;19910;42.652;23.332;2023-02-13T04:58:34;96455.66;;;0.72;88.64
23176;BME280;19910;42.652;23.332;2023-02-13T05:01:00;96457.81;;;0.63;89.13
23176;BME280;19910;42.652;23.332;2023-02-13T05:03:27;96458.41;;;0.65;89.22
23176;BME280;19910;42.652;23.332;2023-02-13T05:05:54;96464.50;;;0.91;88.68
23176;BME280;19910;42.652;23.332;2023-02-13T05:08:21;96463.69;;;0.90;88.16
23176;BME280;19910;42.652;23.332;2023-02-13T05:10:47;96469.69;;;0.86;88.40
23176;BME280;19910;42.652;23.332;2023-02-13T05:13:14;96467.19;;;1.09;87.46
23176;BME280;19910;42.652;23.332;2023-02-13T05:15:42;96472.06;;;1.12;87.30
23176;BME280;19910;42.652;23.332;2023-02-13T05:18:09;96464.94;;;1.24;87.59
23176;BME280;19910;42.652;23.332;2023-02-13T05:20:36;96477.34;;;1.19;86.69
23176;BME280;19910;42.652;23.332;2023-02-13T05:23:03;96467.44;;;1.37;86.51
23176;BME280;19910;42.652;23.332;2023-02-13T05:25:47;96469.84;;;0.91;86.17
23176;BME280;19910;42.652;23.332;2023-02-13T05:28:14;96477.97;;;0.78;86.95
23176;BME280;19910;42.652;23.332;2023-02-13T05:30:59;96477.59;;;0.74;87.92
23176;BME280;19910;42.652;23.332;2023-02-13T05:33:26;96485.41;;;0.51;88.19
23176;BME280;19910;42.652;23.332;2023-02-13T05:35:53;96469.16;;;0.34;89.49
23176;BME280;19910;42.652;23.332;2023-02-13T05:38:20;96479.88;;;0.52;89.11
23176;BME280;19910;42.652;23.332;2023-02-13T05:40:46;96484.09;;;0.35;89.32
23176;BME280;19910;42.652;23.332;2023-02-13T05:43:13;96481.75;;;0.45;89.44
23176;BME280;19910;42.652;23.332;2023-02-13T05:45:40;96491.56;;;0.51;89.03
23176;BME280;19910;42.652;23.332;2023-02-13T05:48:08;96492.31;;;0.33;89.33
23176;BME280;19910;42.652;23.332;2023-02-13T05:50:35;96493.84;;;0.23;89.82
23176;BME280;19910;42.652;23.332;2023-02-13T05:53:02;96502.53;;;0.12;90.37
23176;BME280;19910;42.652;23.332;2023-02-13T05:55:29;96496.75;;;0.15;90.82
23176;BME280;19910;42.652;23.332;2023-02-13T05:57:56;96497.22;;;0.12;89.92
23176;BME280;19910;42.652;23.332;2023-02-13T06:00:23;96502.16;;;0.08;90.29
23176;BME280;19910;42.652;23.332;2023-02-13T06:02:50;96502.75;;;0.10;90.48
23176;BME280;19910;42.652;23.332;2023-02-13T06:05:18;96504.19;;;0.06;90.52
23176;BME280;19910;42.652;23.332;2023-02-13T06:07:45;96503.28;;;0.19;89.92
23176;BME280;19910;42.652;23.332;2023-02-13T06:10:12;96515.31;;;0.28;90.96
23176;BME280;19910;42.652;23.332;2023-02-13T06:12:39;96505.31;;;0.23;89.74
23176;BME280;19910;42.652;23.332;2023-02-13T06:15:06;96505.00;;;0.38;91.02
23176;BME280;19910;42.652;23.332;2023-02-13T06:17:33;96522.47;;;0.34;89.91
23176;BME280;19910;42.652;23.332;2023-02-13T06:20:00;96516.69;;;0.37;89.19
23176;BME280;19910;42.652;23.332;2023-02-13T06:22:28;96520.81;;;0.33;88.82
23176;BME280;19910;42.652;23.332;2023-02-13T06:24:54;96497.28;;;1.34;99.88
23176;BME280;19910;42.652;23.332;2023-02-13T06:27:21;96515.56;;;0.51;90.94
23176;BME280;19910;42.652;23.332;2023-02-13T06:29:48;96513.31;;;0.48;89.78
23176;BME280;19910;42.652;23.332;2023-02-13T06:32:15;96517.13;;;0.59;89.45
23176;BME280;19910;42.652;23.332;2023-02-13T06:34:41;96522.84;;;0.62;88.94
23176;BME280;19910;42.652;23.332;2023-02-13T06:37:08;96523.56;;;0.51;87.88
23176;BME280;19910;42.652;23.332;2023-02-13T06:39:39;96519.06;;;0.70;87.81
23176;BME280;19910;42.652;23.332;2023-02-13T06:42:05;96517.69;;;0.67;87.63
23176;BME280;19910;42.652;23.332;2023-02-13T06:44:32;96525.09;;;0.65;87.73
23176;BME280;19910;42.652;23.332;2023-02-13T06:46:59;96519.41;;;0.55;87.49
23176;BME280;19910;42.652;23.332;2023-02-13T06:49:25;96526.38;;;0.56;88.32
23176;BME280;19910;42.652;23.332;2023-02-13T06:51:52;96527.69;;;0.47;88.70
23176;BME280;19910;42.652;23.332;2023-02-13T06:54:19;96527.16;;;0.63;87.92
23176;BME280;19910;42.652;23.332;2023-02-13T06:56:47;96524.63;;;0.68;87.64
23176;BME280;19910;42.652;23.332;2023-02-13T06:59:14;96524.78;;;0.74;86.75
23176;BME280;19910;42.652;23.332;2023-02-13T07:01:40;96532.41;;;0.95;86.45
23176;BME280;19910;42.652;23.332;2023-02-13T07:04:07;96518.53;;;0.61;87.04
23176;BME280;19910;42.652;23.332;2023-02-13T07:06:34;96519.63;;;0.97;87.05
23176;BME280;19910;42.652;23.332;2023-02-13T07:09:01;96510.19;;;1.19;86.22
23176;BME280;19910;42.652;23.332;2023-02-13T07:11:27;96501.94;;;1.39;85.91
23176;BME280;19910;42.652;23.332;2023-02-13T07:13:55;96510.75;;;1.76;84.83
23176;BME280;19910;42.652;23.332;2023-02-13T07:16:22;96517.81;;;2.00;83.38
23176;BME280;19910;42.652;23.332;2023-02-13T07:18:49;96513.78;;;2.21;81.44
23176;BME280;19910;42.652;23.332;2023-02-13T07:21:16;96527.47;;;1.83;82.22
23176;BME280;19910;42.652;23.332;2023-02-13T07:23:43;96521.13;;;1.66;82.29
23176;BME280;19910;42.652;23.332;2023-02-13T07:26:09;96531.22;;;1.27;82.93
23176;BME280;19910;42.652;23.332;2023-02-13T07:28:36;96522.50;;;1.20;83.32
23176;BME280;19910;42.652;23.332;2023-02-13T07:31:05;96525.28;;;1.25;84.83
23176;BME280;19910;42.652;23.332;2023-02-13T07:33:32;96524.72;;;1.41;84.45
23176;BME280;19910;42.652;23.332;2023-02-13T07:35:58;96528.25;;;1.54;83.04
23176;BME280;19910;42.652;23.332;2023-02-13T07:38:39;96525.75;;;1.59;82.56
23176;BME280;19910;42.652;23.332;2023-02-13T07:41:08;96532.13;;;1.39;82.62
23176;BME280;19910;42.652;23.332;2023-02-13T07:43:35;96524.16;;;1.51;82.78
23176;BME280;19910;42.652;23.332;2023-02-13T07:46:03;96523.78;;;1.84;81.93
23176;BME280;19910;42.652;23.332;2023-02-13T07:48:30;96522.97;;;1.84;81.63
23176;BME280;19910;42.652;23.332;2023-02-13T07:50:59;96531.63;;;1.49;81.79
23176;BME280;19910;42.652;23.332;2023-02-13T07:53:26;96526.56;;;1.23;82.98
23176;BME280;19910;42.652;23.332;2023-02-13T07:55:53;96517.59;;;1.17;83.26
23176;BME280;19910;42.652;23.332;2023-02-13T07:58:20;96524.69;;;1.23;83.65
23176;BME280;19910;42.652;23.332;2023-02-13T08:00:47;96519.69;;;1.33;83.56
23176;BME280;19910;42.652;23.332;2023-02-13T08:03:15;96529.38;;;1.28;82.95
23176;BME280;19910;42.652;23.332;2023-02-13T08:05:41;96525.09;;;1.45;82.52
23176;BME280;19910;42.652;23.332;2023-02-13T08:08:10;96523.66;;;1.61;81.80
23176;BME280;19910;42.652;23.332;2023-02-13T08:10:39;96521.00;;;1.61;82.08
23176;BME280;19910;42.652;23.332;2023-02-13T08:13:23;96520.59;;;2.05;81.88
23176;BME280;19910;42.652;23.332;2023-02-13T08:15:50;96521.41;;;1.76;80.82
23176;BME280;19910;42.652;23.332;2023-02-13T08:18:18;96519.97;;;1.92;80.93
23176;BME280;19910;42.652;23.332;2023-02-13T08:20:45;96522.88;;;1.90;80.54
23176;BME280;19910;42.652;23.332;2023-02-13T08:23:15;96521.75;;;1.79;80.68
23176;BME280;19910;42.652;23.332;2023-02-13T08:25:41;96523.25;;;2.05;80.45
23176;BME280;19910;42.652;23.332;2023-02-13T08:28:08;96522.03;;;2.20;79.19
23176;BME280;19910;42.652;23.332;2023-02-13T08:30:35;96514.97;;;2.25;79.30
23176;BME280;19910;42.652;23.332;2023-02-13T08:33:02;96520.13;;;2.38;78.75
23176;BME280;19910;42.652;23.332;2023-02-13T08:35:30;96519.69;;;2.53;78.52
23176;BME280;19910;42.652;23.332;2023-02-13T08:38:00;96516.03;;;2.36;79.05
23176;BME280;19910;42.652;23.332;2023-02-13T08:40:27;96524.97;;;2.18;79.02
23176;BME280;19910;42.652;23.332;2023-02-13T08:42:58;96514.34;;;1.82;80.33
23176;BME280;19910;42.652;23.332;2023-02-13T08:45:26;96524.25;;;1.63;81.15
23176;BME280;19910;42.652;23.332;2023-02-13T08:47:55;96522.91;;;1.72;81.61
23176;BME280;19910;42.652;23.332;2023-02-13T08:50:22;96521.25;;;1.89;80.69
23176;BME280;19910;42.652;23.332;2023-02-13T08:52:50;96531.06;;;1.77;81.65
23176;BME280;19910;42.652;23.332;2023-02-13T08:55:17;96518.53;;;1.77;81.62
23176;BME280;19910;42.652;23.332;2023-02-13T08:57:44;96526.13;;;1.92;80.81
23176;BME280;19910;42.652;23.332;2023-02-13T09:00:11;96530.66;;;2.22;80.43
23176;BME280;19910;42.652;23.332;2023-02-13T09:02:38;96527.53;;;2.25;80.07
23176;BME280;19910;42.652;23.332;2023-02-13T09:05:06;96521.75;;;2.51;78.85
23176;BME280;19910;42.652;23.332;2023-02-13T09:07:32;96526.25;;;2.27;79.18
23176;BME280;19910;42.652;23.332;2023-02-13T09:10:00;96519.25;;;2.79;78.03
23176;BME280;19910;42.652;23.332;2023-02-13T09:12:27;96521.22;;;2.72;78.13
23176;BME280;19910;42.652;23.332;2023-02-13T09:14:54;96519.91;;;2.63;77.24
23176;BME280;19910;42.652;23.332;2023-02-13T09:17:21;96517.63;;;2.90;77.17
23176;BME280;19910;42.652;23.332;2023-02-13T09:19:47;96517.13;;;3.16;76.75
23176;BME280;19910;42.652;23.332;2023-02-13T09:22:14;96507.69;;;3.37;75.60
23176;BME280;19910;42.652;23.332;2023-02-13T09:24:41;96509.16;;;3.68;74.54
23176;BME280;19910;42.652;23.332;2023-02-13T09:27:09;96503.75;;;4.08;73.61
23176;BME280;19910;42.652;23.332;2023-02-13T09:29:36;96505.56;;;4.19;71.62
23176;BME280;19910;42.652;23.332;2023-02-13T09:32:03;96497.66;;;3.84;72.23
23176;BME280;19910;42.652;23.332;2023-02-13T09:34:31;96498.34;;;3.51;74.20
23176;BME280;19910;42.652;23.332;2023-02-13T09:36:58;96500.72;;;3.25;74.18
23176;BME280;19910;42.652;23.332;2023-02-13T09:39:25;96501.88;;;3.40;73.71
23176;BME280;19910;42.652;23.332;2023-02-13T09:41:52;96495.97;;;3.67;73.50
23176;BME280;19910;42.652;23.332;2023-02-13T09:44:27;96492.72;;;4.21;72.96
23176;BME280;19910;42.652;23.332;2023-02-13T09:47:08;96490.34;;;3.80;74.01
23176;BME280;19910;42.652;23.332;2023-02-13T09:49:40;96479.94;;;3.83;73.37
23176;BME280;19910;42.652;23.332;2023-02-13T09:52:09;96481.41;;;4.19;72.04
23176;BME280;19910;42.652;23.332;2023-02-13T09:54:36;96478.25;;;4.22;71.78
23176;BME280;19910;42.652;23.332;2023-02-13T09:57:07;96475.66;;;3.71;73.14
23176;BME280;19910;42.652;23.332;2023-02-13T09:59:55;96477.19;;;3.38;74.05
23176;BME280;19910;42.652;23.332;2023-02-13T10:02:36;96478.13;;;3.32;74.70
23176;BME280;19910;42.652;23.332;2023-02-13T10:05:19;96474.81;;;3.53;74.72
23176;BME280;19910;42.652;23.332;2023-02-13T10:07:52;96465.69;;;3.95;73.26
23176;BME280;19910;42.652;23.332;2023-02-13T10:10:26;96453.69;;;4.14;72.56
23176;BME280;19910;42.652;23.332;2023-02-13T10:13:06;96452.91;;;4.63;71.63
23176;BME280;19910;42.652;23.332;2023-02-13T10:15:42;96457.97;;;3.98;72.04
23176;BME280;19910;42.652;23.332;2023-02-13T10:18:13;96460.97;;;3.45;73.11
23176;BME280;19910;42.652;23.332;2023-02-13T10:20:44;96446.25;;;3.19;74.19
23176;BME280;19910;42.652;23.332;2023-02-13T10:23:18;96444.59;;;3.18;74.05
23176;BME280;19910;42.652;23.332;2023-02-13T10:25:51;96447.78;;;3.03;75.08
23176;BME280;19910;42.652;23.332;2023-02-13T10:28:27;96437.34;;;3.30;74.75
23176;BME280;19910;42.652;23.332;2023-02-13T10:31:00;96430.16;;;3.59;74.56
23176;BME280;19910;42.652;23.332;2023-02-13T10:33:31;96422.75;;;3.78;74.02
23176;BME280;19910;42.652;23.332;2023-02-13T10:36:01;96413.56;;;4.19;72.46
23176;BME280;19910;42.652;23.332;2023-02-13T10:38:32;96417.84;;;4.03;72.81
23176;BME280;19910;42.652;23.332;2023-02-13T10:41:05;96413.53;;;4.02;73.15
23176;BME280;19910;42.652;23.332;2023-02-13T10:43:49;96409.16;;;3.96;72.86
23176;BME280;19910;42.652;23.332;2023-02-13T10:46:25;96409.63;;;3.93;73.07
23176;BME280;19910;42.652;23.332;2023-02-13T10:49:06;96399.22;;;3.80;72.68
23176;BME280;19910;42.652;23.332;2023-02-13T10:51:41;96390.94;;;3.98;72.29
23176;BME280;19910;42.652;23.332;2023-02-13T10:54:30;96388.97;;;4.10;72.20
23176;BME280;19910;42.652;23.332;2023-02-13T10:57:04;96384.44;;;4.44;71.38
23176;BME280;19910;42.652;23.332;2023-02-13T10:59:53;96384.31;;;4.73;69.96
23176;BME280;19910;42.652;23.332;2023-02-13T11:02:26;96379.97;;;4.50;71.04
23176;BME280;19910;42.652;23.332;2023-02-13T11:04:58;96382.38;;;4.51;70.56
23176;BME280;19910;42.652;23.332;2023-02-13T11:07:26;96371.00;;;4.61;70.06
23176;BME280;19910;42.652;23.332;2023-02-13T11:10:00;96373.34;;;4.74;70.30
23176;BME280;19910;42.652;23.332;2023-02-13T11:12:30;96362.59;;;4.74;70.81
23176;BME280;19910;42.652;23.332;2023-02-13T11:14:59;96362.25;;;5.31;67.77
23176;BME280;19910;42.652;23.332;2023-02-13T11:17:29;96353.63;;;5.29;67.63
23176;BME280;19910;42.652;23.332;2023-02-13T11:19:58;96358.63;;;4.98;67.61
23176;BME280;19910;42.652;23.332;2023-02-13T11:22:30;96351.63;;;4.76;68.83
23176;BME280;19910;42.652;23.332;2023-02-13T11:25:00;96342.78;;;4.58;68.66
23176;BME280;19910;42.652;23.332;2023-02-13T11:27:31;96333.00;;;5.13;69.06
23176;BME280;19910;42.652;23.332;2023-02-13T11:30:00;96331.41;;;5.39;66.93
23176;BME280;19910;42.652;23.332;2023-02-13T11:32:30;96327.91;;;5.38;65.33
23176;BME280;19910;42.652;23.332;2023-02-13T11:35:20;96313.59;;;5.06;65.16
23176;BME280;19910;42.652;23.332;2023-02-13T11:38:10;96313.97;;;5.41;65.68
23176;BME280;19910;42.652;23.332;2023-02-13T11:40:40;96306.81;;;5.52;64.28
23176;BME280;19910;42.652;23.332;2023-02-13T11:43:16;96309.88;;;5.12;65.24
23176;BME280;19910;42.652;23.332;2023-02-13T11:45:44;96304.63;;;5.22;64.92
23176;BME280;19910;42.652;23.332;2023-02-13T11:48:20;96296.00;;;5.47;65.10
23176;BME280;19910;42.652;23.332;2023-02-13T11:50:51;96287.28;;;5.34;63.94
23176;BME280;19910;42.652;23.332;2023-02-13T11:53:21;96284.06;;;5.59;64.59
23176;BME280;19910;42.652;23.332;2023-02-13T11:56:02;96274.88;;;5.55;62.47
23176;BME280;19910;42.652;23.332;2023-02-13T11:58:29;96280.69;;;5.47;62.80
23176;BME280;19910;42.652;23.332;2023-02-13T12:01:22;96272.38;;;5.22;62.93
23176;BME280;19910;42.652;23.332;2023-02-13T12:04:03;96267.06;;;5.27;62.91
23176;BME280;19910;42.652;23.332;2023-02-13T12:06:31;96261.94;;;5.25;63.09
23176;BME280;19910;42.652;23.332;2023-02-13T12:09:04;96259.34;;;5.62;63.76
23176;BME280;19910;42.652;23.332;2023-02-13T12:11:37;96261.00;;;5.68;62.63
23176;BME280;19910;42.652;23.332;2023-02-13T12:14:04;96247.94;;;5.50;61.77
23176;BME280;19910;42.652;23.332;2023-02-13T12:16:37;96254.91;;;5.46;62.44
23176;BME280;19910;42.652;23.332;2023-02-13T12:19:11;96255.06;;;5.66;62.08
23176;BME280;19910;42.652;23.332;2023-02-13T12:21:51;96249.63;;;5.56;61.25
23176;BME280;19910;42.652;23.332;2023-02-13T12:24:32;96251.25;;;5.62;61.32
23176;BME280;19910;42.652;23.332;2023-02-13T12:27:11;96259.38;;;5.67;61.37
23176;BME280;19910;42.652;23.332;2023-02-13T12:29:54;96247.56;;;5.68;61.85
23176;BME280;19910;42.652;23.332;2023-02-13T12:32:29;96256.66;;;5.62;60.60
23176;BME280;19910;42.652;23.332;2023-02-13T12:35:24;96244.13;;;5.78;61.23
23176;BME280;19910;42.652;23.332;2023-02-13T12:38:00;96245.16;;;5.99;60.26
23176;BME280;19910;42.652;23.332;2023-02-13T12:40:38;96234.28;;;5.89;59.62
23176;BME280;19910;42.652;23.332;2023-02-13T12:43:27;96230.22;;;5.86;60.34
23176;BME280;19910;42.652;23.332;2023-02-13T12:46:01;96233.78;;;5.92;60.71
23176;BME280;19910;42.652;23.332;2023-02-13T12:48:36;96222.72;;;6.25;60.79
23176;BME280;19910;42.652;23.332;2023-02-13T12:51:27;96216.81;;;6.28;59.48
23176;BME280;19910;42.652;23.332;2023-02-13T12:54:10;96210.97;;;6.41;58.93
23176;BME280;19910;42.652;23.332;2023-02-13T12:57:02;96216.03;;;6.38;57.86
23176;BME280;19910;42.652;23.332;2023-02-13T12:59:42;96208.69;;;6.23;58.24
23176;BME280;19910;42.652;23.332;2023-02-13T13:05:22;96205.53;;;6.36;59.09
23176;BME280;19910;42.652;23.332;2023-02-13T13:08:16;96209.50;;;6.24;58.29
23176;BME280;19910;42.652;23.332;2023-02-13T13:10:57;96207.41;;;6.36;57.81
23176;BME280;19910;42.652;23.332;2023-02-13T13:13:37;96198.41;;;6.10;57.88
23176;BME280;19910;42.652;23.332;2023-02-13T13:16:17;96205.09;;;6.07;57.24
23176;BME280;19910;42.652;23.332;2023-02-13T13:18:53;96195.72;;;6.15;58.44
23176;BME280;19910;42.652;23.332;2023-02-13T13:21:28;96193.19;;;6.40;58.29
23176;BME280;19910;42.652;23.332;2023-02-13T13:24:04;96195.28;;;6.28;57.63
23176;BME280;19910;42.652;23.332;2023-02-13T13:26:35;96188.19;;;6.17;58.12